Current Weather

Mors Muni - JR Washburn Field

Mors Muni - JR Washburn Field, Illinois (KC09)

Report from: Friday, April 19, 2024 3:55 AM CDT
Current time: Friday, April 19, 2024 4:25 AM CDT

Nearby weather – Weather history – Daily summaries
Weather forecast

Temperature6.8°C (44.2°F)
Wind chill3.5°C (38.3°F)
Dew point4.1°C (39.4°F)
Winds 10 kts (5.1 m/s, 11.5 mph) North-Northwest (330°)
Wind gusts 15 kts (7.7 m/s, 17.3 mph)
Visibility10 mi. (16.1 km)
Clouds Sky clear
Altimeter30.06 in.Hg (1018 mB)
Relative humidity83 %
Density altitude-1,027 ft. (-313 m)
Remarks Fully automated report
Automated weather observing station with precipitation discriminator
Flight conditions Visual Meteorological Conditions
Raw dataKC09 190855Z AUTO 33010G15KT 10SM CLR 07/04 A3006 RMK AO2 T00680041
An error has occurred. This application may no longer respond until reloaded. Reload 🗙